Guantanamo Bay NAS, Cuba
Current Conditions -  °F | °C
As of 6:56 PM on Wednesday 26 Nov 2014 (Local Time) from MUGM Reporting Station
Broken Clouds Broken Clouds  
Wind Chill: 85°   Ceiling: 6000
Heat Index: 93°   Visibility: 6mi
Dew Point: 75°   Wind: 3mph
Humidity: 72%   Direction: 70°ENE
Pressure: 29.99"   Gusts: NA
Location:  19.91°N, 75.2°W
Report Text: MUGM 262256Z 07003KT 9999 SCT032 BKN060 BKN280 29/24 A2999 RMK RAB33E46 SLP156 P0000 T02940239
Loading
Personal Weather Stations






























Interactive Weather Map New forecast layout! Learn more

10-Day Weather Forecast

Advertisements
Track Severe Weather on mobile